Time;durP1;ratioP1;P1;durP2;ratioP2;P2;SDS_P1;SDS_P2;PMS_P1;PMS_P2;Temp;Humidity;BMP_temperature;BMP_pressure;BME280_temperature;BME280_humidity;BME280_pressure;Samples;Min_cycle;Max_cycle;Signal;HPM_P1;HPM_P2
2023/12/15 00:01:08;;;;;;;10.68;8.77;;;3.30;99.90;;;;;;4988062;28;20034;-64
2023/12/15 00:03:33;;;;;;;9.38;8.43;;;3.30;99.90;;;;;;4985931;28;20098;-65
2023/12/15 00:05:59;;;;;;;8.35;7.05;;;3.20;99.90;;;;;;4985447;28;20379;-64
2023/12/15 00:08:25;;;;;;;9.82;8.10;;;3.20;99.90;;;;;;4985612;28;20034;-65
2023/12/15 00:10:51;;;;;;;9.77;8.25;;;3.20;99.90;;;;;;4986286;28;20715;-64
2023/12/15 00:13:16;;;;;;;9.18;8.10;;;3.10;99.90;;;;;;4985436;28;20026;-64
2023/12/15 00:15:42;;;;;;;9.50;8.48;;;3.00;99.90;;;;;;4986469;28;20041;-64
2023/12/15 00:18:07;;;;;;;9.88;8.82;;;3.00;99.90;;;;;;4986224;28;20080;-64
2023/12/15 00:20:34;;;;;;;10.00;8.88;;;2.90;99.90;;;;;;4986890;28;20042;-63
2023/12/15 00:23:00;;;;;;;9.93;8.93;;;2.90;99.90;;;;;;4986665;28;20026;-64
2023/12/15 00:25:26;;;;;;;9.38;8.38;;;2.80;99.90;;;;;;4985337;28;20042;-64
2023/12/15 00:27:51;;;;;;;12.88;8.13;;;2.70;99.90;;;;;;4985442;28;20069;-64
2023/12/15 00:30:17;;;;;;;13.48;8.38;;;2.70;99.90;;;;;;4988793;28;20455;-65
2023/12/15 00:32:43;;;;;;;9.57;7.43;;;2.70;99.90;;;;;;4989645;28;20514;-65
2023/12/15 00:35:09;;;;;;;11.15;7.63;;;2.60;99.90;;;;;;4989335;28;20045;-63
2023/12/15 00:37:35;;;;;;;10.95;8.07;;;2.60;99.90;;;;;;4989183;28;20026;-65
2023/12/15 00:40:00;;;;;;;11.25;7.28;;;2.60;99.90;;;;;;4990870;28;20026;-65
2023/12/15 00:42:26;;;;;;;9.82;7.88;;;2.60;99.90;;;;;;5004053;28;20010;-64
2023/12/15 00:44:52;;;;;;;9.88;8.18;;;2.50;99.90;;;;;;4989260;28;20545;-65
2023/12/15 00:47:17;;;;;;;8.93;7.28;;;2.50;99.90;;;;;;4990870;28;20054;-64
2023/12/15 00:49:43;;;;;;;8.88;6.97;;;2.60;99.90;;;;;;4989721;28;20030;-63
2023/12/15 00:52:09;;;;;;;8.02;6.40;;;2.60;99.90;;;;;;4989702;28;20122;-64
2023/12/15 00:54:34;;;;;;;7.72;6.38;;;2.50;99.90;;;;;;4989708;28;20602;-65
2023/12/15 00:57:00;;;;;;;8.88;7.13;;;2.50;99.90;;;;;;4988391;28;20034;-65
2023/12/15 00:59:26;;;;;;;8.80;7.05;;;2.50;99.90;;;;;;4988496;28;20086;-64
2023/12/15 01:01:52;;;;;;;7.45;6.38;;;2.40;99.90;;;;;;4993341;28;20046;-64
2023/12/15 01:04:17;;;;;;;9.05;7.10;;;2.40;99.90;;;;;;4988784;28;20061;-64
2023/12/15 01:06:43;;;;;;;8.38;7.45;;;2.30;99.90;;;;;;4988980;28;20027;-64
2023/12/15 01:09:09;;;;;;;9.85;7.18;;;2.20;99.90;;;;;;4987385;28;20027;-65
2023/12/15 01:11:34;;;;;;;8.75;6.22;;;2.20;99.90;;;;;;4988438;28;20376;-64
2023/12/15 01:14:00;;;;;;;8.77;6.82;;;2.20;99.90;;;;;;4989111;28;20029;-64
2023/12/15 01:16:26;;;;;;;11.38;7.40;;;2.10;99.90;;;;;;4989621;28;20486;-63
2023/12/15 01:18:52;;;;;;;9.98;6.85;;;2.10;99.90;;;;;;4989591;28;20686;-64
2023/12/15 01:21:18;;;;;;;8.05;7.18;;;2.10;99.90;;;;;;4988075;28;20039;-64
2023/12/15 01:23:43;;;;;;;8.77;6.90;;;2.00;99.90;;;;;;4988817;28;20038;-63
2023/12/15 01:26:09;;;;;;;9.90;7.55;;;2.00;99.90;;;;;;4988451;28;20042;-64
2023/12/15 01:28:34;;;;;;;11.70;8.20;;;1.90;99.90;;;;;;4988924;28;20494;-64
2023/12/15 01:31:01;;;;;;;10.05;7.72;;;1.80;99.90;;;;;;4988029;28;20020;-65
2023/12/15 01:33:27;;;;;;;11.60;8.43;;;1.80;99.90;;;;;;4991951;28;20025;-65
2023/12/15 01:35:54;;;;;;;9.13;7.20;;;1.80;99.90;;;;;;4987619;28;20081;-65
2023/12/15 01:38:19;;;;;;;9.65;8.35;;;1.70;99.90;;;;;;4987826;28;20030;-64
2023/12/15 01:40:45;;;;;;;8.90;7.82;;;1.70;99.90;;;;;;4988764;28;20487;-64
2023/12/15 01:43:10;;;;;;;9.52;7.10;;;1.60;99.90;;;;;;4989020;28;20034;-65
2023/12/15 01:45:36;;;;;;;7.60;6.57;;;1.60;99.90;;;;;;4988608;28;20037;-64
2023/12/15 01:48:02;;;;;;;9.80;7.93;;;1.50;99.90;;;;;;4988322;28;20026;-64
2023/12/15 01:50:28;;;;;;;10.20;7.45;;;1.50;99.90;;;;;;4988344;28;20030;-65
2023/12/15 01:52:53;;;;;;;10.05;7.45;;;1.40;99.90;;;;;;4989296;28;20057;-64
2023/12/15 01:55:19;;;;;;;9.15;7.47;;;1.40;99.90;;;;;;4988476;28;20454;-64
2023/12/15 01:57:44;;;;;;;9.75;7.78;;;1.30;99.90;;;;;;4987940;28;20475;-64
2023/12/15 02:00:11;;;;;;;10.52;7.43;;;1.30;99.90;;;;;;4987574;28;20030;-64
2023/12/15 02:02:36;;;;;;;12.07;7.82;;;1.20;99.90;;;;;;4988910;28;20568;-64
2023/12/15 02:05:02;;;;;;;9.77;8.10;;;1.20;99.90;;;;;;4987706;28;20055;-64
2023/12/15 02:07:28;;;;;;;9.00;7.43;;;1.20;99.90;;;;;;4987023;28;20097;-64
2023/12/15 02:09:55;;;;;;;10.80;8.18;;;1.20;99.90;;;;;;4988288;28;20735;-64
2023/12/15 02:12:20;;;;;;;9.30;7.50;;;1.10;99.90;;;;;;4986602;28;20034;-64
2023/12/15 02:14:46;;;;;;;8.45;7.45;;;1.10;99.90;;;;;;4986882;28;20026;-64
2023/12/15 02:17:12;;;;;;;10.00;7.72;;;1.10;99.90;;;;;;4988430;28;20040;-64
2023/12/15 02:19:38;;;;;;;12.60;8.63;;;1.00;99.90;;;;;;4985401;28;20058;-65
2023/12/15 02:22:04;;;;;;;10.90;8.00;;;1.00;99.90;;;;;;4987409;28;20053;-62
2023/12/15 02:24:30;;;;;;;12.52;9.02;;;1.00;99.90;;;;;;4986808;28;20110;-65
2023/12/15 02:26:56;;;;;;;10.18;7.50;;;1.00;99.90;;;;;;4987024;28;20041;-64
2023/12/15 02:29:22;;;;;;;11.88;8.07;;;1.10;99.90;;;;;;4987250;28;20038;-64
2023/12/15 02:31:47;;;;;;;9.43;7.93;;;1.10;99.90;;;;;;4991728;28;20560;-64
2023/12/15 02:34:13;;;;;;;11.52;7.53;;;1.10;99.90;;;;;;4986869;28;20027;-65
2023/12/15 02:36:39;;;;;;;10.07;7.85;;;1.20;99.90;;;;;;4987369;28;20018;-64
2023/12/15 02:39:04;;;;;;;9.55;7.68;;;1.20;99.90;;;;;;4987614;28;20038;-64
2023/12/15 02:41:31;;;;;;;11.68;8.07;;;1.30;99.90;;;;;;4987829;28;20034;-64
2023/12/15 02:43:56;;;;;;;10.35;7.40;;;1.40;99.90;;;;;;4988373;28;20022;-64
2023/12/15 02:46:22;;;;;;;10.85;7.88;;;1.40;99.90;;;;;;4987711;28;20077;-64
2023/12/15 02:48:47;;;;;;;11.85;7.88;;;1.50;99.90;;;;;;4987902;28;20478;-64
2023/12/15 02:51:30;;;;;;;9.27;7.00;;;1.50;99.90;;;;;;4987468;28;20029;-64
2023/12/15 02:53:59;;;;;;;10.38;7.70;;;1.50;99.90;;;;;;4987643;28;20023;-64
2023/12/15 02:56:25;;;;;;;10.27;7.80;;;1.50;99.90;;;;;;4985721;28;20038;-64
2023/12/15 02:58:51;;;;;;;8.82;7.00;;;1.50;99.90;;;;;;4987802;28;20030;-65
2023/12/15 03:01:17;;;;;;;10.18;8.35;;;1.50;99.90;;;;;;4987200;28;20421;-65
2023/12/15 03:03:43;;;;;;;9.90;7.82;;;1.50;99.90;;;;;;4988396;28;20018;-64
2023/12/15 03:06:08;;;;;;;8.85;7.65;;;1.40;99.90;;;;;;4987183;28;20030;-64
2023/12/15 03:08:34;;;;;;;9.38;6.65;;;1.40;99.90;;;;;;4986279;28;20057;-65
2023/12/15 03:11:00;;;;;;;8.82;7.25;;;1.30;99.90;;;;;;4987705;28;20029;-64
2023/12/15 03:13:28;;;;;;;11.13;6.90;;;1.20;99.90;;;;;;4987398;28;20026;-64
2023/12/15 03:15:54;;;;;;;9.73;7.53;;;1.10;99.90;;;;;;4988159;28;20038;-64
2023/12/15 03:18:20;;;;;;;8.05;6.68;;;1.10;99.90;;;;;;4987422;28;20038;-64
2023/12/15 03:20:45;;;;;;;8.85;6.90;;;1.00;99.90;;;;;;4986641;28;20049;-64
2023/12/15 03:23:11;;;;;;;12.07;7.38;;;1.00;99.90;;;;;;4986674;28;20561;-64
2023/12/15 03:25:37;;;;;;;11.40;8.25;;;0.90;99.90;;;;;;4986520;28;20034;-64
2023/12/15 03:28:02;;;;;;;10.75;7.82;;;0.90;99.90;;;;;;4987761;28;20030;-64
2023/12/15 03:30:28;;;;;;;11.43;8.13;;;0.90;99.90;;;;;;4986105;28;20447;-64
2023/12/15 03:32:54;;;;;;;12.57;8.00;;;0.90;99.90;;;;;;4987427;28;20645;-63
2023/12/15 03:35:19;;;;;;;14.27;8.15;;;0.90;99.90;;;;;;4986373;28;20027;-64
2023/12/15 03:37:45;;;;;;;11.30;8.35;;;1.00;99.90;;;;;;4987173;28;20434;-64
2023/12/15 03:40:11;;;;;;;10.82;8.23;;;1.00;99.90;;;;;;4986550;28;20026;-64
2023/12/15 03:42:37;;;;;;;12.20;8.80;;;1.00;99.90;;;;;;4987493;28;20022;-64
2023/12/15 03:45:04;;;;;;;15.23;8.55;;;1.00;99.90;;;;;;4986518;28;20050;-64
2023/12/15 03:47:30;;;;;;;10.80;8.38;;;1.00;99.90;;;;;;4987293;28;20110;-64
2023/12/15 03:49:56;;;;;;;10.80;7.97;;;1.00;99.90;;;;;;4986103;28;20031;-64
2023/12/15 03:52:21;;;;;;;14.02;10.52;;;1.10;99.90;;;;;;4987213;28;20034;-64
2023/12/15 03:54:47;;;;;;;24.75;13.65;;;1.10;99.90;;;;;;4986897;28;20034;-64
2023/12/15 03:57:13;;;;;;;21.70;13.43;;;1.10;99.90;;;;;;4986403;28;20380;-64
2023/12/15 03:59:39;;;;;;;24.98;13.98;;;1.20;99.90;;;;;;4986717;28;20049;-65
2023/12/15 04:02:05;;;;;;;28.35;15.35;;;1.20;99.90;;;;;;4987394;28;20034;-63
2023/12/15 04:04:32;;;;;;;25.45;14.98;;;1.20;99.90;;;;;;4990122;28;20042;-62
2023/12/15 04:06:58;;;;;;;23.35;14.68;;;1.30;99.90;;;;;;4990496;28;20066;-64
2023/12/15 04:09:24;;;;;;;56.92;25.40;;;1.30;99.90;;;;;;4991268;28;20487;-64
2023/12/15 04:11:49;;;;;;;40.25;20.48;;;1.30;99.90;;;;;;4990609;28;20026;-64
2023/12/15 04:14:15;;;;;;;39.20;20.70;;;1.30;99.90;;;;;;4990327;28;20034;-64
2023/12/15 04:16:41;;;;;;;21.02;13.65;;;1.30;99.90;;;;;;4990374;28;20085;-64
2023/12/15 04:19:07;;;;;;;10.07;7.82;;;1.20;99.90;;;;;;4990171;28;20108;-65
2023/12/15 04:21:33;;;;;;;8.98;6.55;;;1.20;99.90;;;;;;4991355;28;20537;-65
2023/12/15 04:23:59;;;;;;;9.20;6.90;;;1.10;99.90;;;;;;4990070;28;20022;-64
2023/12/15 04:26:25;;;;;;;8.25;6.80;;;1.10;99.90;;;;;;4989919;28;20026;-64
2023/12/15 04:28:51;;;;;;;8.35;6.13;;;1.00;99.90;;;;;;4989358;28;20026;-65
2023/12/15 04:31:16;;;;;;;7.70;6.40;;;1.00;99.90;;;;;;4988466;28;20049;-64
2023/12/15 04:33:42;;;;;;;7.18;6.15;;;1.00;99.90;;;;;;4990865;28;20014;-64
2023/12/15 04:36:08;;;;;;;8.85;7.05;;;0.90;99.90;;;;;;4989544;28;20588;-65
2023/12/15 04:38:35;;;;;;;8.95;7.05;;;0.90;99.90;;;;;;4989951;28;20019;-64
2023/12/15 04:41:00;;;;;;;9.48;7.45;;;0.90;99.90;;;;;;4988625;28;20030;-64
2023/12/15 04:43:26;;;;;;;9.02;6.95;;;0.90;99.90;;;;;;4989575;28;20030;-64
2023/12/15 04:45:51;;;;;;;10.75;7.35;;;0.90;99.90;;;;;;4989004;28;20062;-64
2023/12/15 04:48:17;;;;;;;13.48;7.85;;;0.90;99.90;;;;;;4990310;28;20034;-64
2023/12/15 04:50:42;;;;;;;9.07;7.10;;;1.00;99.90;;;;;;4990077;28;20206;-64
2023/12/15 04:53:08;;;;;;;9.82;6.95;;;0.90;99.90;;;;;;4990003;28;20019;-64
2023/12/15 04:55:34;;;;;;;7.80;6.93;;;1.00;99.90;;;;;;4988888;28;20022;-64
2023/12/15 04:58:00;;;;;;;9.77;8.18;;;1.00;99.90;;;;;;4989148;28;20014;-65
2023/12/15 05:00:26;;;;;;;10.20;6.35;;;1.00;99.90;;;;;;4988985;28;20121;-65
2023/12/15 05:02:51;;;;;;;9.35;7.53;;;1.00;99.90;;;;;;4988973;28;20117;-64
2023/12/15 05:05:18;;;;;;;8.98;6.78;;;1.00;99.90;;;;;;4988037;28;20031;-64
2023/12/15 05:07:44;;;;;;;9.05;6.55;;;1.00;99.90;;;;;;4988893;28;20026;-63
2023/12/15 05:10:09;;;;;;;11.93;7.20;;;1.00;99.90;;;;;;4988530;28;20036;-64
2023/12/15 05:12:35;;;;;;;8.07;6.70;;;1.00;99.90;;;;;;4989184;28;20018;-64
2023/12/15 05:15:03;;;;;;;12.27;7.22;;;1.00;99.90;;;;;;4987955;28;20058;-65
2023/12/15 05:17:29;;;;;;;10.45;7.03;;;1.00;99.90;;;;;;4988181;28;20036;-64
2023/12/15 05:19:54;;;;;;;9.38;6.85;;;1.00;99.90;;;;;;4988621;28;20030;-64
2023/12/15 05:22:20;;;;;;;8.73;6.75;;;1.10;99.90;;;;;;4988457;28;20118;-64
2023/12/15 05:24:46;;;;;;;8.68;7.18;;;1.10;99.90;;;;;;4988216;28;20031;-64
2023/12/15 05:27:11;;;;;;;8.63;6.80;;;1.20;99.90;;;;;;4988242;28;20038;-65
2023/12/15 05:29:44;;;;;;;9.80;7.50;;;1.20;99.90;;;;;;4987956;28;20117;-65
2023/12/15 05:32:10;;;;;;;9.85;7.20;;;1.20;99.90;;;;;;4988148;28;20676;-65
2023/12/15 05:34:36;;;;;;;9.70;7.93;;;1.30;99.90;;;;;;4987825;28;20030;-65
2023/12/15 05:37:01;;;;;;;8.93;7.07;;;1.30;99.90;;;;;;4986623;28;20046;-64
2023/12/15 05:39:27;;;;;;;12.60;7.43;;;1.40;99.90;;;;;;4988795;28;20033;-64
2023/12/15 05:41:53;;;;;;;9.52;7.40;;;1.40;99.90;;;;;;4988229;28;20375;-64
2023/12/15 05:44:18;;;;;;;10.55;7.65;;;1.40;99.90;;;;;;4987885;28;20702;-65
2023/12/15 05:46:44;;;;;;;12.77;8.88;;;1.40;99.90;;;;;;4987631;28;20035;-64
2023/12/15 05:49:10;;;;;;;10.52;7.50;;;1.40;99.90;;;;;;4987461;28;20030;-64
2023/12/15 05:51:37;;;;;;;9.43;7.97;;;1.40;99.90;;;;;;4988329;28;20050;-64
2023/12/15 05:56:41;;;;;;;9.00;7.20;;;1.40;99.90;;;;;;5015986;28;20478;-62
2023/12/15 05:59:07;;;;;;;8.45;6.78;;;1.50;99.90;;;;;;4994905;28;20066;-63
2023/12/15 06:01:32;;;;;;;11.13;7.63;;;1.50;99.90;;;;;;5001236;28;20100;-61
2023/12/15 06:03:58;;;;;;;11.45;7.15;;;1.50;99.90;;;;;;5012151;28;20030;-62
2023/12/15 06:06:24;;;;;;;10.48;8.00;;;1.50;99.90;;;;;;5014108;28;20104;-61
2023/12/15 06:08:50;;;;;;;10.23;8.02;;;1.50;99.90;;;;;;5014136;28;20030;-62
2023/12/15 06:11:16;;;;;;;9.70;7.60;;;1.60;99.90;;;;;;5013063;28;20477;-63
2023/12/15 06:13:41;;;;;;;9.25;7.55;;;1.60;99.90;;;;;;5019366;28;20046;-63
2023/12/15 06:16:07;;;;;;;9.38;7.25;;;1.60;99.90;;;;;;5016982;28;20026;-63
2023/12/15 06:18:33;;;;;;;10.00;6.75;;;1.50;99.90;;;;;;5013902;28;20524;-62
2023/12/15 06:20:59;;;;;;;31.08;7.90;;;1.50;99.90;;;;;;5013942;28;20482;-63
2023/12/15 06:23:25;;;;;;;6.50;5.78;;;1.50;99.90;;;;;;5013867;28;20042;-62
2023/12/15 06:25:50;;;;;;;8.93;7.40;;;1.40;99.90;;;;;;5012725;28;20059;-62
2023/12/15 06:28:16;;;;;;;9.30;7.22;;;1.40;99.90;;;;;;5015268;28;20034;-62
2023/12/15 06:30:42;;;;;;;10.15;8.23;;;1.40;99.90;;;;;;5014674;28;20031;-62
2023/12/15 06:33:08;;;;;;;13.30;8.10;;;1.50;99.90;;;;;;5011721;28;20121;-63
2023/12/15 06:35:33;;;;;;;10.25;6.80;;;1.40;99.90;;;;;;5012547;28;20459;-63
2023/12/15 06:38:00;;;;;;;12.00;7.00;;;1.40;99.90;;;;;;5014609;28;20520;-62
2023/12/15 06:40:25;;;;;;;8.13;6.53;;;1.40;99.90;;;;;;5015878;28;20036;-62
2023/12/15 06:42:51;;;;;;;9.15;7.10;;;1.40;99.90;;;;;;5015542;28;20025;-63
2023/12/15 06:45:17;;;;;;;9.48;7.30;;;1.50;99.90;;;;;;5011247;28;20039;-62
2023/12/15 06:47:42;;;;;;;9.75;7.22;;;1.50;99.90;;;;;;5011046;28;20157;-61
2023/12/15 06:50:09;;;;;;;10.73;7.75;;;1.50;99.90;;;;;;5003067;28;20034;-62
2023/12/15 06:52:36;;;;;;;9.98;7.82;;;1.50;99.90;;;;;;4996847;28;20046;-63
2023/12/15 06:55:03;;;;;;;10.60;8.30;;;1.50;99.90;;;;;;5013758;28;20038;-63
2023/12/15 06:57:29;;;;;;;11.70;7.43;;;1.50;99.90;;;;;;5016894;28;20022;-63
2023/12/15 06:59:55;;;;;;;8.77;7.35;;;1.60;99.90;;;;;;5013262;28;20029;-62
2023/12/15 07:02:20;;;;;;;9.52;6.93;;;1.60;99.90;;;;;;5014814;28;20022;-63
2023/12/15 07:04:46;;;;;;;13.05;7.30;;;1.50;99.90;;;;;;5014904;28;20030;-62
2023/12/15 07:07:12;;;;;;;9.05;6.47;;;1.60;99.90;;;;;;5007281;28;20096;-62
2023/12/15 07:09:37;;;;;;;8.63;6.47;;;1.60;99.90;;;;;;4983914;28;21653;-62
2023/12/15 07:12:03;;;;;;;9.88;7.43;;;1.60;99.90;;;;;;4995944;28;20401;-63
2023/12/15 07:14:29;;;;;;;10.30;8.35;;;1.70;99.90;;;;;;4999935;28;20038;-62
2023/12/15 07:16:55;;;;;;;11.80;8.02;;;1.70;99.90;;;;;;5003528;28;20030;-63
2023/12/15 07:19:20;;;;;;;8.02;6.63;;;1.70;99.90;;;;;;5004882;28;20537;-63
2023/12/15 07:21:47;;;;;;;9.52;7.25;;;1.70;99.90;;;;;;5003461;28;20129;-63
2023/12/15 07:24:12;;;;;;;8.43;6.60;;;1.70;99.90;;;;;;5004001;28;20497;-63
2023/12/15 07:26:38;;;;;;;10.50;7.43;;;1.70;99.90;;;;;;4999577;28;20030;-63
2023/12/15 07:29:05;;;;;;;11.38;8.05;;;1.70;99.90;;;;;;4998338;28;20029;-63
2023/12/15 07:31:30;;;;;;;10.27;8.45;;;1.70;99.90;;;;;;5004330;28;20034;-63
2023/12/15 07:33:56;;;;;;;10.95;7.13;;;1.70;99.90;;;;;;5000780;28;20116;-63
2023/12/15 07:36:22;;;;;;;9.77;8.02;;;1.70;99.90;;;;;;5004277;28;20065;-63
2023/12/15 07:38:48;;;;;;;11.20;8.38;;;1.70;99.90;;;;;;5003429;28;20023;-62
2023/12/15 07:41:14;;;;;;;11.38;8.05;;;1.70;99.90;;;;;;5003839;28;20402;-63
2023/12/15 07:43:40;;;;;;;10.38;8.05;;;1.80;99.90;;;;;;5003275;28;20026;-63
2023/12/15 07:46:14;;;;;;;11.65;9.20;;;1.90;99.90;;;;;;4999839;28;20018;-62
2023/12/15 07:48:40;;;;;;;9.82;8.25;;;1.90;99.90;;;;;;5003243;28;20042;-63
2023/12/15 07:51:06;;;;;;;14.63;8.35;;;2.00;99.90;;;;;;5004020;28;20045;-64
2023/12/15 07:53:31;;;;;;;16.60;8.38;;;2.00;99.90;;;;;;5001188;28;20034;-63
2023/12/15 07:55:57;;;;;;;11.40;7.00;;;2.00;99.90;;;;;;5001941;28;20073;-64
2023/12/15 07:58:23;;;;;;;8.90;7.30;;;2.10;99.90;;;;;;5004577;28;20038;-63
2023/12/15 08:00:48;;;;;;;8.45;6.65;;;2.20;99.90;;;;;;4998959;28;20152;-64
2023/12/15 08:03:14;;;;;;;10.85;7.47;;;2.30;99.90;;;;;;4999578;28;20035;-63
2023/12/15 08:05:39;;;;;;;8.32;6.20;;;2.40;99.90;;;;;;4999116;28;20034;-63
2023/12/15 08:08:05;;;;;;;9.88;7.20;;;2.40;99.90;;;;;;4998580;28;20061;-62
2023/12/15 08:10:31;;;;;;;8.20;6.90;;;2.50;99.90;;;;;;5001001;28;20036;-63
2023/12/15 08:12:57;;;;;;;7.05;5.82;;;2.50;99.90;;;;;;5001104;28;20071;-64
2023/12/15 08:15:22;;;;;;;8.88;7.40;;;2.60;99.90;;;;;;5000100;28;20483;-64
2023/12/15 08:17:48;;;;;;;9.48;6.68;;;2.60;99.90;;;;;;4999811;28;20033;-64
2023/12/15 08:20:13;;;;;;;9.10;6.88;;;2.60;99.90;;;;;;4998995;28;20112;-63
2023/12/15 08:22:39;;;;;;;8.95;7.32;;;2.60;99.90;;;;;;5000754;28;20792;-62
2023/12/15 08:25:05;;;;;;;10.13;8.10;;;2.60;99.90;;;;;;4998697;28;20959;-63
2023/12/15 08:27:30;;;;;;;9.38;7.45;;;2.60;99.90;;;;;;4998225;28;20034;-63
2023/12/15 08:29:57;;;;;;;10.60;8.10;;;2.60;99.90;;;;;;4999685;28;20037;-63
2023/12/15 08:32:23;;;;;;;9.05;7.57;;;2.60;99.90;;;;;;5000617;28;20034;-63
2023/12/15 08:34:49;;;;;;;10.23;7.72;;;2.60;99.90;;;;;;4996726;28;20030;-63
2023/12/15 08:37:14;;;;;;;8.73;7.03;;;2.60;99.90;;;;;;5000332;28;20033;-63
2023/12/15 08:39:40;;;;;;;11.93;8.23;;;2.70;99.90;;;;;;4998143;28;20482;-63
2023/12/15 08:42:05;;;;;;;10.65;8.38;;;2.80;99.90;;;;;;5002441;28;20387;-63
2023/12/15 08:44:31;;;;;;;9.68;7.85;;;2.90;99.90;;;;;;5004797;28;20074;-63
2023/12/15 08:46:57;;;;;;;9.38;7.90;;;3.00;99.90;;;;;;5003486;28;20508;-63
2023/12/15 08:49:22;;;;;;;10.38;7.72;;;3.00;99.90;;;;;;5000379;28;20037;-62
2023/12/15 08:51:49;;;;;;;9.95;7.80;;;3.10;99.90;;;;;;5000599;28;20036;-63
2023/12/15 08:54:15;;;;;;;10.02;8.07;;;3.20;99.90;;;;;;4998643;28;20092;-64
2023/12/15 08:56:41;;;;;;;9.45;7.90;;;3.30;99.90;;;;;;5001387;28;20074;-63
2023/12/15 08:59:06;;;;;;;11.70;9.55;;;3.40;99.90;;;;;;4997794;28;20034;-63
2023/12/15 09:01:33;;;;;;;11.07;7.85;;;3.50;99.90;;;;;;4998994;28;20034;-64
2023/12/15 09:03:59;;;;;;;11.00;8.75;;;3.50;99.90;;;;;;4998602;28;20041;-64
2023/12/15 09:06:25;;;;;;;13.57;8.20;;;3.50;99.90;;;;;;4999825;28;20022;-62
2023/12/15 09:08:50;;;;;;;11.55;7.18;;;3.50;99.90;;;;;;4999216;28;20026;-62
2023/12/15 09:11:16;;;;;;;11.93;7.90;;;3.50;99.90;;;;;;5003234;28;20018;-63
2023/12/15 09:13:42;;;;;;;10.45;8.55;;;3.60;99.90;;;;;;4998316;28;20117;-63
2023/12/15 09:16:07;;;;;;;11.73;8.93;;;3.60;99.90;;;;;;4999971;28;20068;-62
2023/12/15 09:18:33;;;;;;;10.77;8.60;;;3.70;99.90;;;;;;5000767;28;20061;-62
2023/12/15 09:21:00;;;;;;;15.25;11.18;;;3.80;99.90;;;;;;4996870;28;20058;-63
2023/12/15 09:23:25;;;;;;;11.70;9.43;;;3.90;99.90;;;;;;4998084;28;20136;-62
2023/12/15 09:25:53;;;;;;;12.45;8.43;;;3.90;99.90;;;;;;4996242;28;20636;-64
2023/12/15 09:28:18;;;;;;;11.07;8.50;;;3.80;99.90;;;;;;4998067;28;20026;-63
2023/12/15 09:30:44;;;;;;;11.32;8.73;;;3.80;99.90;;;;;;4997236;28;20493;-62
2023/12/15 09:33:10;;;;;;;12.48;9.85;;;3.90;99.90;;;;;;4999353;28;20026;-63
2023/12/15 09:35:36;;;;;;;11.93;9.15;;;3.90;99.90;;;;;;4997910;28;20034;-64
2023/12/15 09:38:03;;;;;;;10.15;8.25;;;3.90;99.90;;;;;;4999384;28;20026;-63
2023/12/15 09:40:32;;;;;;;11.00;8.85;;;3.90;99.90;;;;;;5001438;28;20030;-64
2023/12/15 09:42:57;;;;;;;10.65;8.57;;;3.90;99.90;;;;;;5000012;28;20096;-62
2023/12/15 09:45:23;;;;;;;11.13;8.65;;;3.90;99.90;;;;;;4997097;28;20080;-64
2023/12/15 09:47:51;;;;;;;12.07;9.40;;;3.90;99.90;;;;;;4998770;28;20034;-63
2023/12/15 09:50:20;;;;;;;12.38;8.95;;;3.90;99.90;;;;;;4996673;28;20046;-62
2023/12/15 09:52:46;;;;;;;11.52;9.15;;;3.90;99.90;;;;;;4998394;28;20038;-63
2023/12/15 09:55:12;;;;;;;10.15;9.05;;;3.90;99.90;;;;;;4997012;28;20405;-63
2023/12/15 09:57:39;;;;;;;11.02;8.45;;;3.90;99.90;;;;;;4997697;28;20089;-63
2023/12/15 10:00:07;;;;;;;11.00;8.60;;;3.90;99.90;;;;;;4997631;28;20601;-63
2023/12/15 10:02:34;;;;;;;13.65;9.60;;;3.90;99.90;;;;;;4999438;28;20026;-63
2023/12/15 10:05:00;;;;;;;14.68;8.88;;;4.00;99.90;;;;;;4995143;28;20037;-64
2023/12/15 10:07:26;;;;;;;11.98;8.25;;;4.00;99.90;;;;;;5000717;28;20034;-63
2023/12/15 10:09:52;;;;;;;12.60;9.65;;;4.00;99.90;;;;;;4996961;28;20029;-63
2023/12/15 10:12:17;;;;;;;10.52;8.32;;;4.00;99.90;;;;;;4996936;28;20402;-63
2023/12/15 10:14:43;;;;;;;11.45;9.32;;;4.10;99.90;;;;;;4995157;28;20293;-63
2023/12/15 10:17:10;;;;;;;10.77;8.13;;;4.10;99.90;;;;;;4997218;28;20026;-63
2023/12/15 10:19:36;;;;;;;11.65;9.27;;;4.10;99.90;;;;;;4997294;28;20109;-64
2023/12/15 10:22:02;;;;;;;11.07;8.60;;;4.20;99.90;;;;;;4998715;28;20125;-63
2023/12/15 10:24:28;;;;;;;10.75;8.40;;;4.20;99.90;;;;;;4999237;28;20026;-63
2023/12/15 10:26:53;;;;;;;10.27;8.32;;;4.30;99.90;;;;;;4996783;28;20491;-63
2023/12/15 10:29:21;;;;;;;9.70;8.00;;;4.40;99.90;;;;;;4997029;28;20030;-63
2023/12/15 10:31:51;;;;;;;10.57;7.28;;;4.40;99.90;;;;;;4996196;28;20513;-63
2023/12/15 10:34:17;;;;;;;13.70;9.85;;;4.50;99.90;;;;;;4999833;28;20037;-63
2023/12/15 10:36:46;;;;;;;10.45;8.60;;;4.60;99.90;;;;;;4997786;28;20172;-62
2023/12/15 10:39:13;;;;;;;11.68;9.45;;;4.60;99.90;;;;;;4999992;28;20547;-63
2023/12/15 10:41:40;;;;;;;12.18;8.45;;;4.70;99.90;;;;;;4999361;28;20037;-63
2023/12/15 10:44:07;;;;;;;16.10;9.88;;;4.70;99.90;;;;;;4999133;28;20026;-63
2023/12/15 10:46:33;;;;;;;10.70;9.13;;;4.70;99.90;;;;;;5004059;28;20022;-63
2023/12/15 10:48:59;;;;;;;12.90;9.43;;;4.70;99.90;;;;;;5000248;28;20052;-63
2023/12/15 10:51:26;;;;;;;12.88;9.55;;;4.70;99.90;;;;;;4999349;28;20022;-63
2023/12/15 10:53:53;;;;;;;14.25;9.95;;;4.70;99.90;;;;;;5000390;28;20037;-63
2023/12/15 10:56:19;;;;;;;15.65;10.18;;;4.70;99.90;;;;;;4998366;28;20138;-62
2023/12/15 10:58:45;;;;;;;20.02;12.05;;;4.70;99.90;;;;;;4997162;28;20026;-64
2023/12/15 11:01:14;;;;;;;16.17;11.30;;;4.70;99.90;;;;;;4999018;28;20406;-63
2023/12/15 11:03:41;;;;;;;16.08;9.10;;;4.60;99.90;;;;;;5003099;28;20034;-62
2023/12/15 11:06:07;;;;;;;13.70;10.55;;;4.60;99.90;;;;;;4999350;28;20038;-62
2023/12/15 11:08:32;;;;;;;11.35;8.18;;;4.70;99.90;;;;;;4999013;28;20030;-63
2023/12/15 11:10:58;;;;;;;12.00;9.25;;;4.70;99.90;;;;;;4999521;28;20402;-63
2023/12/15 11:13:48;;;;;;;11.82;9.65;;;4.70;99.90;;;;;;5001125;28;20036;-63
2023/12/15 11:16:16;;;;;;;12.33;8.77;;;4.60;99.90;;;;;;5000255;28;20033;-62
2023/12/15 11:18:42;;;;;;;12.32;8.75;;;4.60;99.90;;;;;;5001933;28;20108;-63
2023/12/15 11:21:11;;;;;;;12.38;8.25;;;4.60;99.90;;;;;;5000524;28;20118;-63
2023/12/15 11:23:51;;;;;;;11.50;8.45;;;4.50;99.90;;;;;;4998549;28;20065;-64
2023/12/15 11:26:22;;;;;;;13.25;9.07;;;4.40;99.90;;;;;;4997513;28;20494;-63
2023/12/15 11:28:48;;;;;;;11.85;8.73;;;4.30;99.90;;;;;;4998594;28;20027;-63
2023/12/15 11:31:24;;;;;;;16.25;10.25;;;4.20;99.90;;;;;;4998993;28;20502;-63
2023/12/15 11:33:50;;;;;;;12.57;9.10;;;4.20;99.90;;;;;;4996742;28;20036;-65
2023/12/15 11:36:16;;;;;;;16.00;10.55;;;4.20;99.90;;;;;;5000059;28;20027;-63
2023/12/15 11:38:47;;;;;;;14.25;9.45;;;4.20;99.90;;;;;;5002611;28;20030;-63
2023/12/15 11:41:15;;;;;;;15.13;10.45;;;4.30;99.90;;;;;;5000435;28;20018;-64
2023/12/15 11:43:43;;;;;;;16.58;10.95;;;4.40;99.90;;;;;;4999239;28;20093;-63
2023/12/15 11:46:12;;;;;;;12.93;9.52;;;4.40;99.90;;;;;;5001918;28;20080;-63
2023/12/15 11:48:39;;;;;;;16.88;10.27;;;4.50;99.90;;;;;;5000311;28;20023;-64
2023/12/15 11:51:05;;;;;;;17.27;9.88;;;4.50;99.90;;;;;;5004891;28;20117;-62
2023/12/15 11:53:32;;;;;;;13.07;10.05;;;4.50;99.90;;;;;;5001163;28;20132;-64
2023/12/15 11:56:01;;;;;;;14.85;10.15;;;4.60;99.90;;;;;;4995990;28;20050;-63
2023/12/15 11:58:27;;;;;;;13.13;9.82;;;4.70;99.90;;;;;;5000318;28;20096;-63
2023/12/15 12:00:53;;;;;;;14.35;9.52;;;4.80;99.90;;;;;;4999793;28;20030;-64
2023/12/15 12:03:20;;;;;;;16.92;11.55;;;4.90;99.90;;;;;;4997922;28;20040;-64
2023/12/15 12:05:47;;;;;;;15.73;11.07;;;5.00;99.90;;;;;;4995540;28;20030;-63
2023/12/15 12:08:14;;;;;;;14.13;10.75;;;5.00;99.90;;;;;;4993706;28;20022;-64
2023/12/15 12:10:41;;;;;;;12.13;10.65;;;5.00;99.90;;;;;;4997482;28;20033;-64
2023/12/15 12:13:07;;;;;;;14.43;10.70;;;5.00;99.90;;;;;;4999995;28;20018;-64
2023/12/15 12:15:47;;;;;;;13.35;10.38;;;5.00;99.90;;;;;;5005839;28;20088;-64
2023/12/15 12:18:13;;;;;;;16.55;10.80;;;5.00;99.90;;;;;;4999648;28;20026;-64
2023/12/15 12:20:41;;;;;;;15.20;10.27;;;5.00;99.90;;;;;;4997361;28;20041;-64
2023/12/15 12:23:07;;;;;;;14.88;10.20;;;4.90;99.90;;;;;;5003267;28;20125;-63
2023/12/15 12:25:32;;;;;;;17.02;11.30;;;4.90;99.90;;;;;;5009146;28;20120;-64
2023/12/15 12:27:58;;;;;;;15.70;10.88;;;4.90;99.90;;;;;;5018312;28;20018;-64
2023/12/15 12:30:24;;;;;;;16.30;11.43;;;4.90;99.90;;;;;;5018795;28;20025;-64
2023/12/15 12:32:49;;;;;;;15.57;11.63;;;4.90;99.90;;;;;;5000617;28;20037;-64
2023/12/15 12:35:15;;;;;;;19.90;12.43;;;4.80;99.90;;;;;;5019590;28;20026;-64
2023/12/15 12:37:41;;;;;;;19.17;12.63;;;4.70;99.90;;;;;;5017597;28;20037;-66
2023/12/15 12:40:08;;;;;;;18.35;12.35;;;4.60;99.90;;;;;;5017134;28;20029;-66
2023/12/15 12:42:33;;;;;;;22.60;12.13;;;4.50;99.90;;;;;;5014592;28;20470;-63
2023/12/15 12:44:59;;;;;;;23.38;13.77;;;4.40;99.90;;;;;;5016144;28;20045;-63
2023/12/15 12:47:28;;;;;;;24.60;12.25;;;4.40;99.90;;;;;;5020380;28;20121;-63